sensor_id;sensor_type;location;lat;lon;timestamp;pressure;altitude;pressure_sealevel;temperature;humidity
61506;BME280;47366;51.916;4.574;2023-02-23T00:00:26;101452.53;;;7.76;100.00
61506;BME280;47366;51.916;4.574;2023-02-23T00:02:55;101459.69;;;7.77;100.00
61506;BME280;47366;51.916;4.574;2023-02-23T00:05:23;101452.66;;;7.73;100.00
61506;BME280;47366;51.916;4.574;2023-02-23T00:07:49;101453.53;;;7.74;100.00
61506;BME280;47366;51.916;4.574;2023-02-23T00:10:16;101447.22;;;7.75;100.00
61506;BME280;47366;51.916;4.574;2023-02-23T00:12:43;101454.34;;;7.76;100.00
61506;BME280;47366;51.916;4.574;2023-02-23T00:15:09;101458.03;;;7.73;100.00
61506;BME280;47366;51.916;4.574;2023-02-23T00:17:35;101457.16;;;7.73;100.00
61506;BME280;47366;51.916;4.574;2023-02-23T00:20:03;101455.28;;;7.75;100.00
61506;BME280;47366;51.916;4.574;2023-02-23T00:22:32;101458.00;;;7.75;100.00
61506;BME280;47366;51.916;4.574;2023-02-23T00:24:57;101456.28;;;7.72;100.00
61506;BME280;47366;51.916;4.574;2023-02-23T00:27:24;101463.44;;;7.73;100.00
61506;BME280;47366;51.916;4.574;2023-02-23T00:29:49;101450.09;;;7.70;100.00
61506;BME280;47366;51.916;4.574;2023-02-23T00:32:15;101457.28;;;7.70;100.00
61506;BME280;47366;51.916;4.574;2023-02-23T00:34:44;101450.13;;;7.69;100.00
61506;BME280;47366;51.916;4.574;2023-02-23T00:37:13;101457.28;;;7.70;100.00
61506;BME280;47366;51.916;4.574;2023-02-23T00:39:38;101453.78;;;7.68;100.00
61506;BME280;47366;51.916;4.574;2023-02-23T00:42:04;101448.31;;;7.69;100.00
61506;BME280;47366;51.916;4.574;2023-02-23T00:44:30;101442.09;;;7.67;100.00
61506;BME280;47366;51.916;4.574;2023-02-23T00:46:59;101447.50;;;7.67;100.00
61506;BME280;47366;51.916;4.574;2023-02-23T00:49:25;101450.25;;;7.65;100.00
61506;BME280;47366;51.916;4.574;2023-02-23T00:51:51;101461.94;;;7.66;100.00
61506;BME280;47366;51.916;4.574;2023-02-23T00:54:18;101450.25;;;7.65;100.00
61506;BME280;47366;51.916;4.574;2023-02-23T00:56:43;101446.66;;;7.65;100.00
61506;BME280;47366;51.916;4.574;2023-02-23T00:59:10;101445.78;;;7.64;100.00
61506;BME280;47366;51.916;4.574;2023-02-23T01:01:36;101450.25;;;7.65;100.00
61506;BME280;47366;51.916;4.574;2023-02-23T01:04:03;101445.78;;;7.64;100.00
61506;BME280;47366;51.916;4.574;2023-02-23T01:06:28;101449.31;;;7.66;100.00
61506;BME280;47366;51.916;4.574;2023-02-23T01:08:54;101449.38;;;7.65;100.00
61506;BME280;47366;51.916;4.574;2023-02-23T01:11:25;101445.78;;;7.64;100.00
61506;BME280;47366;51.916;4.574;2023-02-23T01:13:58;101453.88;;;7.64;100.00
61506;BME280;47366;51.916;4.574;2023-02-23T01:16:28;101455.66;;;7.65;100.00
61506;BME280;47366;51.916;4.574;2023-02-23T01:18:56;101463.78;;;7.64;100.00
61506;BME280;47366;51.916;4.574;2023-02-23T01:21:28;101457.53;;;7.63;100.00
61506;BME280;47366;51.916;4.574;2023-02-23T01:23:53;101460.16;;;7.65;100.00
61506;BME280;47366;51.916;4.574;2023-02-23T01:26:27;101461.97;;;7.64;100.00
61506;BME280;47366;51.916;4.574;2023-02-23T01:28:58;101461.94;;;7.66;100.00
61506;BME280;47366;51.916;4.574;2023-02-23T01:31:28;101461.09;;;7.64;100.00
61506;BME280;47366;51.916;4.574;2023-02-23T01:33:55;101461.94;;;7.66;100.00
61506;BME280;47366;51.916;4.574;2023-02-23T01:36:21;101464.75;;;7.63;100.00
61506;BME280;47366;51.916;4.574;2023-02-23T01:38:47;101465.53;;;7.65;100.00
61506;BME280;47366;51.916;4.574;2023-02-23T01:41:14;101464.66;;;7.64;100.00
61506;BME280;47366;51.916;4.574;2023-02-23T01:44:01;101465.50;;;7.66;100.00
61506;BME280;47366;51.916;4.574;2023-02-23T01:46:35;101461.16;;;7.62;100.00
61506;BME280;47366;51.916;4.574;2023-02-23T01:49:02;101465.53;;;7.65;100.00
61506;BME280;47366;51.916;4.574;2023-02-23T01:51:31;101470.06;;;7.64;100.00
61506;BME280;47366;51.916;4.574;2023-02-23T01:54:06;101465.53;;;7.65;100.00
61506;BME280;47366;51.916;4.574;2023-02-23T01:56:39;101461.06;;;7.65;100.00
61506;BME280;47366;51.916;4.574;2023-02-23T01:59:11;101460.22;;;7.63;100.00
61506;BME280;47366;51.916;4.574;2023-02-23T02:01:40;101462.06;;;7.63;100.00
61506;BME280;47366;51.916;4.574;2023-02-23T02:04:07;101461.16;;;7.62;100.00
61506;BME280;47366;51.916;4.574;2023-02-23T02:06:34;101463.78;;;7.64;100.00
61506;BME280;47366;51.916;4.574;2023-02-23T02:09:04;101464.66;;;7.64;100.00
61506;BME280;47366;51.916;4.574;2023-02-23T02:11:33;101471.00;;;7.63;100.00
61506;BME280;47366;51.916;4.574;2023-02-23T02:14:07;101471.88;;;7.64;100.00
61506;BME280;47366;51.916;4.574;2023-02-23T02:23:11;101469.19;;;7.64;100.00
61506;BME280;47366;51.916;4.574;2023-02-23T02:28:52;101481.81;;;7.63;100.00
61506;BME280;47366;51.916;4.574;2023-02-23T02:31:30;101471.94;;;7.62;100.00
61506;BME280;47366;51.916;4.574;2023-02-23T02:40:01;101471.16;;;7.60;100.00
61506;BME280;47366;51.916;4.574;2023-02-23T02:43:08;101459.44;;;7.60;100.00
61506;BME280;47366;51.916;4.574;2023-02-23T02:45:58;101467.53;;;7.60;100.00
61506;BME280;47366;51.916;4.574;2023-02-23T02:48:44;101455.75;;;7.62;100.00
61506;BME280;47366;51.916;4.574;2023-02-23T02:51:22;101463.06;;;7.60;100.00
61506;BME280;47366;51.916;4.574;2023-02-23T02:54:00;101448.75;;;7.58;100.00
61506;BME280;47366;51.916;4.574;2023-02-23T02:56:32;101459.53;;;7.58;100.00
61506;BME280;47366;51.916;4.574;2023-02-23T02:59:01;101454.19;;;7.57;100.00
61506;BME280;47366;51.916;4.574;2023-02-23T03:01:29;101455.00;;;7.59;100.00
61506;BME280;47366;51.916;4.574;2023-02-23T03:04:22;101459.53;;;7.58;100.00
61506;BME280;47366;51.916;4.574;2023-02-23T03:07:14;101451.53;;;7.55;100.00
61506;BME280;47366;51.916;4.574;2023-02-23T03:16:54;101456.94;;;7.55;100.00
61506;BME280;47366;51.916;4.574;2023-02-23T03:19:53;101449.75;;;7.56;100.00
61506;BME280;47366;51.916;4.574;2023-02-23T03:29:01;101457.88;;;7.54;100.00
61506;BME280;47366;51.916;4.574;2023-02-23T03:32:08;101467.81;;;7.54;100.00
61506;BME280;47366;51.916;4.574;2023-02-23T03:35:01;101460.72;;;7.51;100.00
61506;BME280;47366;51.916;4.574;2023-02-23T03:37:54;101478.69;;;7.51;100.00
61506;BME280;47366;51.916;4.574;2023-02-23T03:40:41;101477.75;;;7.52;100.00
61506;BME280;47366;51.916;4.574;2023-02-23T03:43:31;101477.72;;;7.53;100.00
61506;BME280;47366;51.916;4.574;2023-02-23T03:46:18;101477.72;;;7.53;100.00
61506;BME280;47366;51.916;4.574;2023-02-23T03:49:04;101480.41;;;7.53;100.00
61506;BME280;47366;51.916;4.574;2023-02-23T03:51:52;101482.19;;;7.53;100.00
61506;BME280;47366;51.916;4.574;2023-02-23T03:54:46;101494.75;;;7.54;100.00
61506;BME280;47366;51.916;4.574;2023-02-23T03:57:34;101493.88;;;7.53;100.00
61506;BME280;47366;51.916;4.574;2023-02-23T04:00:24;101485.81;;;7.53;100.00
61506;BME280;47366;51.916;4.574;2023-02-23T04:03:15;101492.06;;;7.54;100.00
61506;BME280;47366;51.916;4.574;2023-02-23T04:06:02;101489.38;;;7.54;100.00
61506;BME280;47366;51.916;4.574;2023-02-23T04:08:48;101491.06;;;7.56;100.00
61506;BME280;47366;51.916;4.574;2023-02-23T04:14:35;101485.81;;;7.53;100.00
61506;BME280;47366;51.916;4.574;2023-02-23T04:17:03;101486.75;;;7.51;100.00
61506;BME280;47366;51.916;4.574;2023-02-23T04:19:29;101486.72;;;7.52;100.00
61506;BME280;47366;51.916;4.574;2023-02-23T04:21:55;101488.59;;;7.50;100.00
61506;BME280;47366;51.916;4.574;2023-02-23T04:24:21;101498.44;;;7.51;100.00
61506;BME280;47366;51.916;4.574;2023-02-23T04:26:47;101493.88;;;7.53;100.00
61506;BME280;47366;51.916;4.574;2023-02-23T04:29:12;101486.84;;;7.49;100.00
61506;BME280;47366;51.916;4.574;2023-02-23T04:31:38;101485.81;;;7.53;100.00
61506;BME280;47366;51.916;4.574;2023-02-23T04:34:06;101488.59;;;7.50;100.00
61506;BME280;47366;51.916;4.574;2023-02-23T04:36:31;101488.53;;;7.52;100.00
61506;BME280;47366;51.916;4.574;2023-02-23T04:38:56;101492.97;;;7.53;100.00
61506;BME280;47366;51.916;4.574;2023-02-23T04:41:22;101490.28;;;7.53;100.00
61506;BME280;47366;51.916;4.574;2023-02-23T04:43:48;101492.16;;;7.51;100.00
61506;BME280;47366;51.916;4.574;2023-02-23T04:46:13;101497.53;;;7.51;100.00
61506;BME280;47366;51.916;4.574;2023-02-23T04:48:38;101494.94;;;7.49;100.00
61506;BME280;47366;51.916;4.574;2023-02-23T04:51:04;101497.69;;;7.48;100.00
61506;BME280;47366;51.916;4.574;2023-02-23T04:53:29;101505.03;;;7.44;100.00
61506;BME280;47366;51.916;4.574;2023-02-23T04:55:55;101499.50;;;7.47;100.00
61506;BME280;47366;51.916;4.574;2023-02-23T04:58:20;101504.03;;;7.47;100.00
61506;BME280;47366;51.916;4.574;2023-02-23T05:00:45;101506.75;;;7.45;100.00
61506;BME280;47366;51.916;4.574;2023-02-23T05:03:11;101509.50;;;7.43;100.00
61506;BME280;47366;51.916;4.574;2023-02-23T05:05:37;101513.97;;;7.44;100.00
61506;BME280;47366;51.916;4.574;2023-02-23T05:08:03;101514.84;;;7.45;100.00
61506;BME280;47366;51.916;4.574;2023-02-23T05:10:28;101508.63;;;7.43;100.00
61506;BME280;47366;51.916;4.574;2023-02-23T05:12:54;101512.19;;;7.43;100.00
61506;BME280;47366;51.916;4.574;2023-02-23T05:15:19;101521.19;;;7.44;100.00
61506;BME280;47366;51.916;4.574;2023-02-23T05:17:45;101521.19;;;7.44;100.00
61506;BME280;47366;51.916;4.574;2023-02-23T05:20:12;101529.31;;;7.42;100.00
61506;BME280;47366;51.916;4.574;2023-02-23T05:22:38;101534.84;;;7.39;100.00
61506;BME280;47366;51.916;4.574;2023-02-23T05:25:04;101532.19;;;7.38;100.00
61506;BME280;47366;51.916;4.574;2023-02-23T05:27:30;101536.59;;;7.40;100.00
61506;BME280;47366;51.916;4.574;2023-02-23T05:29:56;101536.69;;;7.37;100.00
61506;BME280;47366;51.916;4.574;2023-02-23T05:32:22;101538.56;;;7.35;100.00
61506;BME280;47366;51.916;4.574;2023-02-23T05:34:47;101539.44;;;7.36;100.00
61506;BME280;47366;51.916;4.574;2023-02-23T05:37:13;101539.53;;;7.34;100.00
61506;BME280;47366;51.916;4.574;2023-02-23T05:39:38;101538.56;;;7.35;100.00
61506;BME280;47366;51.916;4.574;2023-02-23T05:42:04;101544.84;;;7.36;100.00
61506;BME280;47366;51.916;4.574;2023-02-23T05:44:29;101535.00;;;7.35;100.00
61506;BME280;47366;51.916;4.574;2023-02-23T05:46:54;101545.78;;;7.35;100.00
61506;BME280;47366;51.916;4.574;2023-02-23T05:49:20;101537.81;;;7.32;100.00
61506;BME280;47366;51.916;4.574;2023-02-23T05:51:45;101545.78;;;7.35;100.00
61506;BME280;47366;51.916;4.574;2023-02-23T05:54:10;101539.56;;;7.33;100.00
61506;BME280;47366;51.916;4.574;2023-02-23T05:56:37;101535.13;;;7.32;100.00
61506;BME280;47366;51.916;4.574;2023-02-23T05:59:02;101536.00;;;7.32;100.00
61506;BME280;47366;51.916;4.574;2023-02-23T06:01:29;101539.69;;;7.30;100.00
61506;BME280;47366;51.916;4.574;2023-02-23T06:03:55;101536.03;;;7.31;100.00
61506;BME280;47366;51.916;4.574;2023-02-23T06:06:20;101541.47;;;7.29;100.00
61506;BME280;47366;51.916;4.574;2023-02-23T06:08:48;101541.44;;;7.31;100.00
61506;BME280;47366;51.916;4.574;2023-02-23T06:11:14;101552.22;;;7.31;100.00
61506;BME280;47366;51.916;4.574;2023-02-23T06:13:39;101552.25;;;7.29;100.00
61506;BME280;47366;51.916;4.574;2023-02-23T06:16:05;101555.84;;;7.30;100.00
61506;BME280;47366;51.916;4.574;2023-02-23T06:18:32;101562.94;;;7.32;100.00
61506;BME280;47366;51.916;4.574;2023-02-23T06:20:59;101561.16;;;7.31;100.00
61506;BME280;47366;51.916;4.574;2023-02-23T06:23:26;101569.22;;;7.33;100.00
61506;BME280;47366;51.916;4.574;2023-02-23T06:25:51;101566.50;;;7.33;100.00
61506;BME280;47366;51.916;4.574;2023-02-23T06:28:16;101561.25;;;7.30;100.00
61506;BME280;47366;51.916;4.574;2023-02-23T06:30:42;101565.66;;;7.32;100.00
61506;BME280;47366;51.916;4.574;2023-02-23T06:33:08;101567.50;;;7.30;100.00
61506;BME280;47366;51.916;4.574;2023-02-23T06:35:34;101570.09;;;7.33;100.00
61506;BME280;47366;51.916;4.574;2023-02-23T06:38:00;101576.41;;;7.32;100.00
61506;BME280;47366;51.916;4.574;2023-02-23T06:40:26;101580.00;;;7.33;100.00
61506;BME280;47366;51.916;4.574;2023-02-23T06:42:51;101574.72;;;7.30;100.00
61506;BME280;47366;51.916;4.574;2023-02-23T06:45:17;101579.16;;;7.31;100.00
61506;BME280;47366;51.916;4.574;2023-02-23T06:47:43;101582.81;;;7.30;100.00
61506;BME280;47366;51.916;4.574;2023-02-23T06:50:09;101589.03;;;7.32;100.00
61506;BME280;47366;51.916;4.574;2023-02-23T06:52:35;101589.06;;;7.30;100.00
61506;BME280;47366;51.916;4.574;2023-02-23T06:55:00;101594.50;;;7.29;100.00
61506;BME280;47366;51.916;4.574;2023-02-23T06:57:26;101598.97;;;7.30;100.00
61506;BME280;47366;51.916;4.574;2023-02-23T06:59:51;101596.38;;;7.27;100.00
61506;BME280;47366;51.916;4.574;2023-02-23T07:02:17;101602.59;;;7.29;100.00
61506;BME280;47366;51.916;4.574;2023-02-23T07:04:43;101602.59;;;7.29;100.00
61506;BME280;47366;51.916;4.574;2023-02-23T07:07:09;101613.31;;;7.30;100.00
61506;BME280;47366;51.916;4.574;2023-02-23T07:09:34;101611.63;;;7.28;100.00
61506;BME280;47366;51.916;4.574;2023-02-23T07:12:00;101615.13;;;7.30;100.00
61506;BME280;47366;51.916;4.574;2023-02-23T07:14:25;101627.66;;;7.31;100.00
61506;BME280;47366;51.916;4.574;2023-02-23T07:16:51;101631.31;;;7.30;100.00
61506;BME280;47366;51.916;4.574;2023-02-23T07:19:16;101637.56;;;7.30;100.00
61506;BME280;47366;51.916;4.574;2023-02-23T07:21:41;101638.44;;;7.31;100.00
61506;BME280;47366;51.916;4.574;2023-02-23T07:24:07;101648.31;;;7.32;100.00
61506;BME280;47366;51.916;4.574;2023-02-23T07:26:33;101657.25;;;7.32;100.00
61506;BME280;47366;51.916;4.574;2023-02-23T07:28:59;101652.78;;;7.31;100.00
61506;BME280;47366;51.916;4.574;2023-02-23T07:31:25;101666.22;;;7.33;100.00
61506;BME280;47366;51.916;4.574;2023-02-23T07:33:54;101660.78;;;7.34;100.00
61506;BME280;47366;51.916;4.574;2023-02-23T07:36:23;101660.78;;;7.34;100.00
61506;BME280;47366;51.916;4.574;2023-02-23T07:38:48;101666.94;;;7.38;100.00
61506;BME280;47366;51.916;4.574;2023-02-23T07:41:14;101674.91;;;7.41;100.00
61506;BME280;47366;51.916;4.574;2023-02-23T07:43:39;101677.53;;;7.44;100.00
61506;BME280;47366;51.916;4.574;2023-02-23T07:46:05;101671.22;;;7.43;100.00
61506;BME280;47366;51.916;4.574;2023-02-23T07:48:30;101681.06;;;7.46;100.00
61506;BME280;47366;51.916;4.574;2023-02-23T07:50:56;101690.00;;;7.47;100.00
61506;BME280;47366;51.916;4.574;2023-02-23T07:53:22;101680.94;;;7.49;100.00
61506;BME280;47366;51.916;4.574;2023-02-23T07:55:58;101692.59;;;7.50;100.00
61506;BME280;47366;51.916;4.574;2023-02-23T07:58:25;101688.94;;;7.51;100.00
61506;BME280;47366;51.916;4.574;2023-02-23T08:00:50;101695.16;;;7.53;100.00
61506;BME280;47366;51.916;4.574;2023-02-23T08:03:15;101700.50;;;7.54;100.00
61506;BME280;47366;51.916;4.574;2023-02-23T08:05:41;101694.09;;;7.58;100.00
61506;BME280;47366;51.916;4.574;2023-02-23T08:08:09;101703.88;;;7.61;100.00
61506;BME280;47366;51.916;4.574;2023-02-23T08:10:35;101697.50;;;7.63;100.00
61506;BME280;47366;51.916;4.574;2023-02-23T08:13:00;101707.25;;;7.68;100.00
61506;BME280;47366;51.916;4.574;2023-02-23T08:15:25;101702.66;;;7.70;100.00
61506;BME280;47366;51.916;4.574;2023-02-23T08:17:51;101707.06;;;7.72;100.00
61506;BME280;47366;51.916;4.574;2023-02-23T08:20:16;101706.13;;;7.73;100.00
61506;BME280;47366;51.916;4.574;2023-02-23T08:22:42;101706.00;;;7.76;100.00
61506;BME280;47366;51.916;4.574;2023-02-23T08:25:08;101720.22;;;7.81;100.00
61506;BME280;47366;51.916;4.574;2023-02-23T08:27:37;101708.59;;;7.79;100.00
61506;BME280;47366;51.916;4.574;2023-02-23T08:30:03;101713.06;;;7.80;100.00
61506;BME280;47366;51.916;4.574;2023-02-23T08:32:32;101721.91;;;7.84;100.00
61506;BME280;47366;51.916;4.574;2023-02-23T08:34:59;101713.81;;;7.84;100.00
61506;BME280;47366;51.916;4.574;2023-02-23T08:37:27;101717.13;;;7.92;100.00
61506;BME280;47366;51.916;4.574;2023-02-23T08:39:54;101717.97;;;7.94;100.00
61506;BME280;47366;51.916;4.574;2023-02-23T08:42:19;101723.13;;;8.00;100.00
61506;BME280;47366;51.916;4.574;2023-02-23T08:44:45;101723.06;;;8.02;100.00
61506;BME280;47366;51.916;4.574;2023-02-23T08:47:10;101720.41;;;8.00;100.00
61506;BME280;47366;51.916;4.574;2023-02-23T08:49:36;101729.22;;;8.05;100.00
61506;BME280;47366;51.916;4.574;2023-02-23T08:52:01;101731.03;;;8.05;100.00
61506;BME280;47366;51.916;4.574;2023-02-23T08:54:26;101732.91;;;8.03;100.00
61506;BME280;47366;51.916;4.574;2023-02-23T08:56:55;101734.88;;;7.99;100.00
61506;BME280;47366;51.916;4.574;2023-02-23T08:59:22;101734.06;;;7.96;100.00
61506;BME280;47366;51.916;4.574;2023-02-23T09:01:47;101742.16;;;7.96;100.00
61506;BME280;47366;51.916;4.574;2023-02-23T09:04:12;101748.50;;;7.95;100.00
61506;BME280;47366;51.916;4.574;2023-02-23T09:06:38;101750.22;;;7.97;100.00
61506;BME280;47366;51.916;4.574;2023-02-23T09:09:05;101753.75;;;7.99;100.00
61506;BME280;47366;51.916;4.574;2023-02-23T09:11:31;101752.78;;;8.00;100.00
61506;BME280;47366;51.916;4.574;2023-02-23T09:13:56;101751.16;;;7.96;100.00
61506;BME280;47366;51.916;4.574;2023-02-23T09:16:21;101755.63;;;7.97;100.00
61506;BME280;47366;51.916;4.574;2023-02-23T09:18:47;101767.19;;;8.01;100.00
61506;BME280;47366;51.916;4.574;2023-02-23T09:21:17;101759.97;;;8.01;100.00
61506;BME280;47366;51.916;4.574;2023-02-23T09:23:45;101763.66;;;7.99;100.00
61506;BME280;47366;51.916;4.574;2023-02-23T09:26:12;101769.88;;;8.01;100.00
61506;BME280;47366;51.916;4.574;2023-02-23T09:28:38;101772.50;;;8.02;100.00
61506;BME280;47366;51.916;4.574;2023-02-23T09:31:07;101773.38;;;8.03;100.00
61506;BME280;47366;51.916;4.574;2023-02-23T09:33:33;101771.34;;;8.09;100.00
61506;BME280;47366;51.916;4.574;2023-02-23T09:35:58;101775.38;;;8.23;100.00
61506;BME280;47366;51.916;4.574;2023-02-23T09:38:24;101772.50;;;8.27;100.00
61506;BME280;47366;51.916;4.574;2023-02-23T09:40:52;101767.94;;;8.29;99.59
61506;BME280;47366;51.916;4.574;2023-02-23T09:48:21;101770.13;;;8.43;99.78
61506;BME280;47366;51.916;4.574;2023-02-23T09:50:52;101767.25;;;8.48;99.33
61506;BME280;47366;51.916;4.574;2023-02-23T09:53:29;101768.88;;;8.54;98.96
61506;BME280;47366;51.916;4.574;2023-02-23T09:55:57;101775.84;;;8.59;98.96
61506;BME280;47366;51.916;4.574;2023-02-23T09:58:28;101768.56;;;8.61;98.78
61506;BME280;47366;51.916;4.574;2023-02-23T10:01:42;101763.13;;;8.63;98.78
61506;BME280;47366;51.916;4.574;2023-02-23T10:03:48;101774.13;;;8.57;98.38
61506;BME280;47366;51.916;4.574;2023-02-23T10:06:16;101768.91;;;8.52;98.65
61506;BME280;47366;51.916;4.574;2023-02-23T10:11:51;101775.25;;;8.51;98.88
61506;BME280;47366;51.916;4.574;2023-02-23T10:17:33;101783.28;;;8.53;99.04
61506;BME280;47366;51.916;4.574;2023-02-23T10:22:43;101782.72;;;8.68;98.92
61506;BME280;47366;51.916;4.574;2023-02-23T10:25:18;101781.53;;;8.75;98.72
61506;BME280;47366;51.916;4.574;2023-02-23T10:27:47;101783.81;;;8.86;98.49
61506;BME280;47366;51.916;4.574;2023-02-23T10:30:24;101785.28;;;8.95;98.08
61506;BME280;47366;51.916;4.574;2023-02-23T10:35:28;101785.91;;;9.01;96.81
61506;BME280;47366;51.916;4.574;2023-02-23T10:37:55;101784.13;;;9.00;97.09
61506;BME280;47366;51.916;4.574;2023-02-23T10:40:23;101790.53;;;8.98;96.83
61506;BME280;47366;51.916;4.574;2023-02-23T10:42:50;101793.44;;;8.93;96.52
61506;BME280;47366;51.916;4.574;2023-02-23T10:45:24;101798.09;;;8.89;96.69
61506;BME280;47366;51.916;4.574;2023-02-23T10:48:04;101797.13;;;8.90;96.88
61506;BME280;47366;51.916;4.574;2023-02-23T10:50:31;101798.78;;;8.95;97.07
61506;BME280;47366;51.916;4.574;2023-02-23T10:53:00;101795.06;;;8.97;96.95
61506;BME280;47366;51.916;4.574;2023-02-23T10:55:30;101791.53;;;8.95;97.04
61506;BME280;47366;51.916;4.574;2023-02-23T10:58:14;101788.97;;;8.92;96.69
61506;BME280;47366;51.916;4.574;2023-02-23T11:01:12;101791.53;;;8.95;96.65
61506;BME280;47366;51.916;4.574;2023-02-23T11:06:03;101788.81;;;8.97;96.30
61506;BME280;47366;51.916;4.574;2023-02-23T11:08:37;101785.19;;;8.96;96.52
61506;BME280;47366;51.916;4.574;2023-02-23T11:13:35;101795.06;;;8.97;96.21
61506;BME280;47366;51.916;4.574;2023-02-23T11:16:12;101802.53;;;8.90;96.25
61506;BME280;47366;51.916;4.574;2023-02-23T11:18:40;101801.84;;;8.85;96.29
61506;BME280;47366;51.916;4.574;2023-02-23T11:21:12;101813.66;;;8.83;96.27
61506;BME280;47366;51.916;4.574;2023-02-23T11:23:39;101803.97;;;8.77;96.55
61506;BME280;47366;51.916;4.574;2023-02-23T11:28:51;101813.59;;;8.61;96.89
61506;BME280;47366;51.916;4.574;2023-02-23T11:31:20;101813.59;;;8.61;97.16
61506;BME280;47366;51.916;4.574;2023-02-23T11:33:47;101808.25;;;8.59;97.06
61506;BME280;47366;51.916;4.574;2023-02-23T11:36:24;101806.31;;;8.63;97.49
61506;BME280;47366;51.916;4.574;2023-02-23T11:39:18;101799.84;;;8.67;96.77
61506;BME280;47366;51.916;4.574;2023-02-23T11:41:44;101800.66;;;8.69;97.10
61506;BME280;47366;51.916;4.574;2023-02-23T11:44:36;101792.38;;;8.74;96.76
61506;BME280;47366;51.916;4.574;2023-02-23T11:47:01;101788.56;;;8.79;96.82
61506;BME280;47366;51.916;4.574;2023-02-23T11:49:30;101795.66;;;8.82;96.51
61506;BME280;47366;51.916;4.574;2023-02-23T11:52:00;101807.25;;;8.85;96.39
61506;BME280;47366;51.916;4.574;2023-02-23T11:54:28;101805.41;;;8.86;95.97
61506;BME280;47366;51.916;4.574;2023-02-23T11:56:57;101791.16;;;8.82;95.68
61506;BME280;47366;51.916;4.574;2023-02-23T11:59:29;101792.69;;;8.89;96.00
61506;BME280;47366;51.916;4.574;2023-02-23T12:02:15;101791.53;;;8.95;95.70
61506;BME280;47366;51.916;4.574;2023-02-23T12:04:44;101792.41;;;8.96;95.57
61506;BME280;47366;51.916;4.574;2023-02-23T12:07:26;101804.88;;;9.00;95.70
61506;BME280;47366;51.916;4.574;2023-02-23T12:10:09;101801.34;;;8.98;95.63
61506;BME280;47366;51.916;4.574;2023-02-23T12:12:43;101796.00;;;8.96;95.58
61506;BME280;47366;51.916;4.574;2023-02-23T12:15:21;101801.47;;;8.95;95.76
61506;BME280;47366;51.916;4.574;2023-02-23T12:17:54;101809.59;;;8.95;95.88
61506;BME280;47366;51.916;4.574;2023-02-23T12:20:24;101795.22;;;8.94;95.68
61506;BME280;47366;51.916;4.574;2023-02-23T12:22:55;101796.06;;;8.95;95.95
61506;BME280;47366;51.916;4.574;2023-02-23T12:26:08;101790.69;;;8.95;95.11
61506;BME280;47366;51.916;4.574;2023-02-23T12:28:26;101805.09;;;8.93;95.26
61506;BME280;47366;51.916;4.574;2023-02-23T12:31:00;101803.34;;;8.92;95.16
61506;BME280;47366;51.916;4.574;2023-02-23T12:33:45;101799.84;;;8.90;95.28
61506;BME280;47366;51.916;4.574;2023-02-23T12:36:34;101794.47;;;8.89;95.25
61506;BME280;47366;51.916;4.574;2023-02-23T12:39:15;101798.00;;;8.91;95.01
61506;BME280;47366;51.916;4.574;2023-02-23T12:41:53;101786.38;;;8.89;95.15
61506;BME280;47366;51.916;4.574;2023-02-23T12:44:41;101793.38;;;8.95;95.22
61506;BME280;47366;51.916;4.574;2023-02-23T12:47:20;101790.69;;;8.95;95.49
61506;BME280;47366;51.916;4.574;2023-02-23T12:50:40;101797.81;;;8.96;95.25
61506;BME280;47366;51.916;4.574;2023-02-23T12:52:48;101795.94;;;8.98;95.17
61506;BME280;47366;51.916;4.574;2023-02-23T12:55:23;101801.81;;;9.09;95.02
61506;BME280;47366;51.916;4.574;2023-02-23T12:58:23;101802.13;;;9.23;94.36
61506;BME280;47366;51.916;4.574;2023-02-23T13:00:59;101801.25;;;9.23;94.22
61506;BME280;47366;51.916;4.574;2023-02-23T13:09:35;101794.72;;;9.28;93.68
61506;BME280;47366;51.916;4.574;2023-02-23T13:14:46;101790.44;;;9.23;93.61
61506;BME280;47366;51.916;4.574;2023-02-23T13:19:49;101784.78;;;9.07;93.80
61506;BME280;47366;51.916;4.574;2023-02-23T13:22:57;101793.84;;;9.06;93.65
61506;BME280;47366;51.916;4.574;2023-02-23T13:25:56;101790.19;;;9.07;93.74
61506;BME280;47366;51.916;4.574;2023-02-23T13:31:31;101789.03;;;9.12;93.61
61506;BME280;47366;51.916;4.574;2023-02-23T13:33:59;101782.63;;;9.15;93.86
61506;BME280;47366;51.916;4.574;2023-02-23T13:36:27;101779.13;;;9.13;93.66
61506;BME280;47366;51.916;4.574;2023-02-23T13:41:44;101782.63;;;9.15;93.78
61506;BME280;47366;51.916;4.574;2023-02-23T13:44:33;101784.41;;;9.16;93.80
61506;BME280;47366;51.916;4.574;2023-02-23T13:47:37;101782.06;;;9.07;92.95
61506;BME280;47366;51.916;4.574;2023-02-23T13:52:49;101787.44;;;9.08;93.70
61506;BME280;47366;51.916;4.574;2023-02-23T13:58:02;101785.50;;;9.10;93.92
61506;BME280;47366;51.916;4.574;2023-02-23T14:00:28;101788.03;;;9.15;93.63
61506;BME280;47366;51.916;4.574;2023-02-23T14:02:54;101787.94;;;9.18;93.96
61506;BME280;47366;51.916;4.574;2023-02-23T14:05:25;101787.94;;;9.18;93.96
61506;BME280;47366;51.916;4.574;2023-02-23T14:08:02;101792.56;;;9.14;93.28
61506;BME280;47366;51.916;4.574;2023-02-23T14:10:36;101785.47;;;9.12;93.58
61506;BME280;47366;51.916;4.574;2023-02-23T14:15:49;101789.13;;;9.11;93.64
61506;BME280;47366;51.916;4.574;2023-02-23T14:18:32;101788.44;;;9.06;92.41
61506;BME280;47366;51.916;4.574;2023-02-23T14:21:21;101792.09;;;9.03;93.65
61506;BME280;47366;51.916;4.574;2023-02-23T14:24:03;101794.91;;;9.02;94.06
61506;BME280;47366;51.916;4.574;2023-02-23T14:31:35;101795.78;;;9.02;94.50
61506;BME280;47366;51.916;4.574;2023-02-23T14:34:06;101785.91;;;9.01;94.43
61506;BME280;47366;51.916;4.574;2023-02-23T14:36:35;101792.00;;;9.06;93.67
61506;BME280;47366;51.916;4.574;2023-02-23T14:39:07;101792.94;;;9.05;93.93